createdAt,value
2018-05-08T00:02:18.173Z,16.21
2018-05-08T00:04:47.997Z,16.20
2018-05-08T00:07:18.560Z,16.29
2018-05-08T00:09:49.007Z,16.38
2018-05-08T00:12:19.423Z,16.58
2018-05-08T00:14:49.959Z,16.62
2018-05-08T00:17:20.569Z,16.68
2018-05-08T00:19:50.953Z,16.65
2018-05-08T00:22:21.432Z,16.69
2018-05-08T00:24:51.505Z,16.59
2018-05-08T00:27:21.810Z,16.53
2018-05-08T00:29:52.745Z,16.63
2018-05-08T00:32:23.063Z,16.68
2018-05-08T00:34:53.327Z,16.72
2018-05-08T00:37:23.496Z,16.72
2018-05-08T00:39:53.971Z,16.75
2018-05-08T00:42:24.400Z,16.77
2018-05-08T00:44:54.904Z,16.77
2018-05-08T00:47:25.303Z,16.78
2018-05-08T00:49:55.603Z,16.85
2018-05-08T00:52:25.713Z,16.77
2018-05-08T00:55:07.926Z,16.82
2018-05-08T00:57:38.514Z,16.76
2018-05-08T01:00:08.861Z,16.78
2018-05-08T01:02:39.342Z,16.71
2018-05-08T01:05:09.931Z,16.77
2018-05-08T01:07:39.767Z,16.81
2018-05-08T01:10:10.033Z,16.78
2018-05-08T01:12:40.299Z,16.74
2018-05-08T01:15:10.935Z,16.78
2018-05-08T01:17:40.737Z,16.73
2018-05-08T01:20:11.065Z,16.73
2018-05-08T01:22:41.655Z,16.63
2018-05-08T01:25:12.217Z,16.63
2018-05-08T01:27:42.548Z,16.42
2018-05-08T01:30:13.277Z,16.11
2018-05-08T01:32:43.140Z,16.06
2018-05-08T01:35:13.638Z,16.09
2018-05-08T01:37:43.464Z,16.11
2018-05-08T01:40:13.765Z,16.01
2018-05-08T01:42:44.244Z,15.91
2018-05-08T01:45:14.684Z,16.00
2018-05-08T01:47:45.158Z,15.93
2018-05-08T01:50:15.523Z,15.99
2018-05-08T01:52:45.890Z,15.95
2018-05-08T01:55:16.034Z,15.76
2018-05-08T01:57:46.501Z,15.71
2018-05-08T02:00:16.887Z,15.62
2018-05-08T02:02:47.273Z,15.50
2018-05-08T02:05:17.348Z,15.43
2018-05-08T02:07:48.007Z,15.46
2018-05-08T02:10:18.476Z,15.29
2018-05-08T02:12:48.873Z,15.19
2018-05-08T02:15:19.019Z,15.08
2018-05-08T02:17:49.329Z,14.92
2018-05-08T02:20:19.940Z,14.89
2018-05-08T02:22:50.186Z,14.89
2018-05-08T02:25:19.948Z,14.96
2018-05-08T02:27:50.609Z,15.08
2018-05-08T02:30:20.934Z,15.20
2018-05-08T02:32:51.253Z,15.18
2018-05-08T02:35:21.675Z,15.19
2018-05-08T02:37:51.960Z,15.07
2018-05-08T02:40:22.424Z,14.97
2018-05-08T02:42:52.603Z,14.91
2018-05-08T02:45:22.820Z,15.02
2018-05-08T02:47:53.599Z,15.06
2018-05-08T02:50:23.916Z,15.10
2018-05-08T02:52:54.353Z,15.14
2018-05-08T02:55:37.185Z,15.00
2018-05-08T02:58:19.760Z,15.00
2018-05-08T03:00:50.268Z,15.09
2018-05-08T03:03:20.763Z,15.19
2018-05-08T03:05:51.349Z,15.29
2018-05-08T03:08:21.710Z,15.35
2018-05-08T03:10:52.213Z,15.42
2018-05-08T03:13:22.889Z,15.39
2018-05-08T03:15:53.221Z,15.21
2018-05-08T03:18:23.912Z,15.16
2018-05-08T03:20:54.262Z,15.24
2018-05-08T03:23:24.514Z,15.18
2018-05-08T03:25:54.805Z,15.16
2018-05-08T03:28:24.968Z,15.14
2018-05-08T03:30:55.287Z,15.10
2018-05-08T03:33:26.121Z,15.11
2018-05-08T03:35:56.386Z,15.15
2018-05-08T03:38:26.797Z,15.22
2018-05-08T03:40:57.245Z,15.18
2018-05-08T03:43:27.776Z,15.27
2018-05-08T03:45:57.893Z,15.23
2018-05-08T03:48:28.203Z,15.22
2018-05-08T03:50:58.615Z,15.32
2018-05-08T03:53:28.337Z,15.42
2018-05-08T03:55:58.049Z,15.62
2018-05-08T03:58:27.891Z,15.77
2018-05-08T04:01:09.262Z,15.84
2018-05-08T04:03:50.782Z,16.04
2018-05-08T04:06:56.029Z,16.24
2018-05-08T04:09:25.745Z,16.24
2018-05-08T04:11:55.518Z,16.18
2018-05-08T04:14:25.264Z,16.09
2018-05-08T04:16:55.000Z,16.06
2018-05-08T04:19:24.755Z,16.12
2018-05-08T04:21:54.471Z,16.24
2018-05-08T04:24:24.210Z,16.46
2018-05-08T04:26:53.965Z,16.67
2018-05-08T04:29:23.679Z,16.88
2018-05-08T04:31:53.409Z,17.06
2018-05-08T04:34:23.124Z,17.30
2018-05-08T04:36:52.929Z,17.37
2018-05-08T04:39:22.653Z,17.32
2018-05-08T04:41:52.385Z,17.63
2018-05-08T04:44:22.135Z,17.96
2018-05-08T04:46:51.854Z,18.00
2018-05-08T04:49:21.606Z,17.97
2018-05-08T04:51:51.312Z,17.98
2018-05-08T04:54:21.093Z,18.03
2018-05-08T04:56:50.841Z,18.16
2018-05-08T04:59:20.561Z,18.38
2018-05-08T05:01:50.312Z,18.61
2018-05-08T05:04:20.077Z,18.78
2018-05-08T05:06:49.785Z,18.66
2018-05-08T05:09:19.501Z,18.51
2018-05-08T05:11:49.242Z,18.39
2018-05-08T05:14:18.975Z,18.44
2018-05-08T05:16:48.813Z,18.50
2018-05-08T05:19:18.462Z,18.54
2018-05-08T05:21:48.266Z,18.50
2018-05-08T05:24:17.963Z,18.54
2018-05-08T05:26:47.705Z,18.45
2018-05-08T05:29:17.458Z,18.71
2018-05-08T05:31:47.228Z,18.66
2018-05-08T05:34:17.023Z,18.64
2018-05-08T05:36:46.733Z,18.68
2018-05-08T05:39:16.465Z,18.81
2018-05-08T05:41:46.217Z,18.94
2018-05-08T05:44:16.140Z,18.99
2018-05-08T05:46:45.914Z,19.30
2018-05-08T05:49:15.657Z,19.36
2018-05-08T05:51:45.436Z,19.39
2018-05-08T05:54:16.715Z,19.58
2018-05-08T05:56:48.288Z,19.59
2018-05-08T05:59:18.038Z,19.72
2018-05-08T06:01:47.749Z,20.00
2018-05-08T06:04:17.515Z,20.35
2018-05-08T06:06:47.259Z,20.15
2018-05-08T06:09:16.961Z,20.20
2018-05-08T06:11:46.652Z,20.39
2018-05-08T06:14:16.421Z,20.70
2018-05-08T06:16:46.143Z,20.76
2018-05-08T06:19:15.973Z,20.76
2018-05-08T06:21:45.722Z,20.83
2018-05-08T06:24:15.473Z,21.00
2018-05-08T06:26:45.230Z,21.12
2018-05-08T06:29:14.956Z,21.25
2018-05-08T06:31:44.756Z,21.40
2018-05-08T06:34:14.527Z,21.59
2018-05-08T06:36:44.268Z,21.48
2018-05-08T06:39:14.127Z,21.71
2018-05-08T06:41:43.855Z,21.77
2018-05-08T06:44:13.605Z,21.86
2018-05-08T06:46:43.480Z,21.94
2018-05-08T06:49:13.217Z,21.99
2018-05-08T06:51:43.001Z,22.20
2018-05-08T06:54:12.714Z,22.34
2018-05-08T06:56:42.402Z,22.49
2018-05-08T06:59:12.125Z,22.38
2018-05-08T07:01:41.895Z,22.34
2018-05-08T07:04:11.653Z,22.55
2018-05-08T07:06:41.390Z,22.54
2018-05-08T07:09:11.286Z,22.64
2018-05-08T07:11:40.993Z,22.81
2018-05-08T07:14:10.756Z,22.64
2018-05-08T07:16:40.507Z,22.71
2018-05-08T07:19:10.255Z,22.83
2018-05-08T07:21:40.034Z,22.71
2018-05-08T07:24:09.720Z,22.83
2018-05-08T07:26:39.415Z,22.83
2018-05-08T07:29:09.169Z,22.81
2018-05-08T07:31:38.870Z,22.92
2018-05-08T07:34:08.573Z,23.00
2018-05-08T07:36:38.261Z,22.98
2018-05-08T07:39:07.983Z,23.35
2018-05-08T07:41:37.727Z,23.53
2018-05-08T07:44:07.424Z,23.55
2018-05-08T07:46:37.154Z,23.92
2018-05-08T07:49:06.961Z,23.59
2018-05-08T07:51:36.690Z,23.27
2018-05-08T07:54:06.486Z,23.47
2018-05-08T07:56:36.238Z,23.62
2018-05-08T07:59:06.024Z,23.76
2018-05-08T08:01:35.752Z,23.95
2018-05-08T08:04:05.527Z,24.16
2018-05-08T08:06:35.331Z,24.26
2018-05-08T08:09:05.082Z,24.52
2018-05-08T08:11:34.828Z,24.73
2018-05-08T08:14:04.554Z,24.90
2018-05-08T08:16:34.277Z,24.76
2018-05-08T08:19:04.090Z,24.72
2018-05-08T08:21:33.875Z,24.84
2018-05-08T08:24:03.623Z,24.69
2018-05-08T08:26:33.340Z,24.67
2018-05-08T08:29:03.057Z,24.82
2018-05-08T08:31:32.844Z,24.78
2018-05-08T08:34:02.541Z,24.88
2018-05-08T08:36:32.239Z,25.15
2018-05-08T08:39:02.010Z,24.95
2018-05-08T08:41:31.768Z,25.29
2018-05-08T08:44:01.540Z,25.23
2018-05-08T08:46:31.351Z,25.32
2018-05-08T08:49:01.082Z,25.01
2018-05-08T08:51:30.814Z,25.32
2018-05-08T08:54:00.581Z,25.40
2018-05-08T08:56:30.346Z,25.77
2018-05-08T08:59:00.080Z,25.85
2018-05-08T09:01:29.806Z,25.91
2018-05-08T09:03:59.559Z,26.00
2018-05-08T09:06:29.262Z,26.17
2018-05-08T09:08:59.016Z,26.42
2018-05-08T09:11:28.768Z,26.76
2018-05-08T09:13:58.567Z,26.55
2018-05-08T09:16:28.281Z,26.33
2018-05-08T09:18:57.972Z,26.48
2018-05-08T09:21:27.747Z,27.20
2018-05-08T09:23:57.484Z,27.29
2018-05-08T09:26:27.198Z,26.99
2018-05-08T09:28:56.933Z,27.20
2018-05-08T09:31:26.675Z,27.08
2018-05-08T09:33:56.430Z,27.20
2018-05-08T09:36:26.165Z,27.12
2018-05-08T09:38:55.892Z,27.41
2018-05-08T09:41:26.545Z,27.53
2018-05-08T09:43:56.949Z,27.42
2018-05-08T09:46:27.355Z,27.41
2018-05-08T09:51:51.034Z,27.23
2018-05-08T09:54:23.345Z,27.54
2018-05-08T09:56:53.798Z,27.82
2018-05-08T09:59:24.665Z,27.35
2018-05-08T10:01:56.093Z,27.05
2018-05-08T10:04:28.230Z,27.53
2018-05-08T10:06:59.440Z,27.70
2018-05-08T10:09:30.080Z,27.87
2018-05-08T10:12:00.481Z,28.03
2018-05-08T10:14:31.217Z,27.79
2018-05-08T10:17:02.626Z,27.65
2018-05-08T10:19:32.497Z,27.85
2018-05-08T10:22:02.323Z,28.08
2018-05-08T10:24:32.048Z,28.36
2018-05-08T10:27:01.802Z,28.50
2018-05-08T10:29:31.602Z,28.88
2018-05-08T10:32:01.321Z,28.92
2018-05-08T10:34:31.081Z,28.42
2018-05-08T10:37:00.809Z,28.40
2018-05-08T10:39:30.491Z,28.43
2018-05-08T10:42:00.257Z,28.77
2018-05-08T10:44:29.985Z,28.96
2018-05-08T10:46:59.706Z,29.41
2018-05-08T10:49:29.458Z,29.27
2018-05-08T10:51:59.200Z,29.00
2018-05-08T10:54:28.959Z,29.11
2018-05-08T10:56:58.737Z,29.21
2018-05-08T10:59:28.479Z,29.06
2018-05-08T11:03:50.106Z,29.78
2018-05-08T11:06:20.588Z,29.15
2018-05-08T11:08:51.068Z,29.30
2018-05-08T11:11:21.551Z,29.11
2018-05-08T11:13:51.267Z,28.48
2018-05-08T11:16:21.790Z,28.33
2018-05-08T11:18:51.576Z,28.55
2018-05-08T11:21:22.124Z,28.34
2018-05-08T11:23:52.380Z,28.45
2018-05-08T11:26:22.639Z,28.96
2018-05-08T11:28:53.033Z,29.59
2018-05-08T11:31:22.948Z,29.55
2018-05-08T11:33:53.369Z,28.92
2018-05-08T11:36:23.472Z,28.77
2018-05-08T11:38:53.472Z,29.10
2018-05-08T11:41:23.657Z,29.49
2018-05-08T11:43:54.117Z,29.32
2018-05-08T11:46:24.305Z,28.88
2018-05-08T11:48:54.748Z,28.45
2018-05-08T11:51:24.879Z,28.42
2018-05-08T11:53:55.271Z,28.25
2018-05-08T11:56:25.633Z,28.30
2018-05-08T11:58:56.391Z,28.00
2018-05-08T12:01:26.501Z,28.02
2018-05-08T12:03:56.997Z,27.99
2018-05-08T12:06:27.402Z,28.76
2018-05-08T12:08:57.647Z,29.12
2018-05-08T12:11:27.983Z,29.57
2018-05-08T12:13:58.322Z,29.15
2018-05-08T12:16:28.431Z,29.34
2018-05-08T12:18:58.670Z,29.54
2018-05-08T12:21:28.382Z,29.60
2018-05-08T12:23:58.583Z,29.46
2018-05-08T12:26:28.879Z,29.60
2018-05-08T12:28:59.399Z,29.24
2018-05-08T12:31:29.628Z,28.93
2018-05-08T12:33:59.540Z,28.90
2018-05-08T12:36:29.802Z,29.57
2018-05-08T12:38:59.924Z,30.41
2018-05-08T12:41:30.691Z,31.39
2018-05-08T12:44:01.383Z,31.36
2018-05-08T12:46:31.862Z,30.89
2018-05-08T12:49:02.603Z,30.31
2018-05-08T12:51:32.975Z,29.94
2018-05-08T12:54:03.543Z,29.86
2018-05-08T12:56:34.120Z,29.61
2018-05-08T12:59:04.520Z,29.11
2018-05-08T13:01:34.604Z,29.56
2018-05-08T13:04:04.785Z,30.13
2018-05-08T13:06:35.538Z,30.27
2018-05-08T13:09:05.397Z,30.50
2018-05-08T13:11:35.572Z,30.71
2018-05-08T13:14:06.129Z,30.15
2018-05-08T13:16:36.608Z,30.01
2018-05-08T13:19:07.547Z,30.15
2018-05-08T13:21:37.820Z,30.60
2018-05-08T13:27:17.042Z,31.19
2018-05-08T13:29:47.669Z,30.10
2018-05-08T13:32:17.889Z,30.25
2018-05-08T13:34:47.850Z,30.76
2018-05-08T13:37:18.890Z,30.96
2018-05-08T13:39:49.928Z,30.64
2018-05-08T13:42:20.558Z,30.50
2018-05-08T13:44:51.609Z,30.68
2018-05-08T13:47:22.103Z,31.61
2018-05-08T13:49:52.917Z,32.00
2018-05-08T13:52:22.779Z,31.39
2018-05-08T13:54:52.622Z,32.23
2018-05-08T13:57:22.463Z,32.67
2018-05-08T13:59:52.324Z,33.42
2018-05-08T14:02:22.128Z,33.26
2018-05-08T14:04:51.952Z,32.93
2018-05-08T14:07:21.866Z,32.51
2018-05-08T14:09:51.674Z,32.73
2018-05-08T14:12:21.484Z,32.25
2018-05-08T14:14:51.301Z,32.07
2018-05-08T14:17:21.074Z,32.40
2018-05-08T14:19:51.032Z,32.51
2018-05-08T14:22:20.837Z,32.85
2018-05-08T14:24:50.719Z,32.81
2018-05-08T14:27:21.083Z,32.49
2018-05-08T14:29:50.892Z,32.91
2018-05-08T14:32:20.748Z,32.78
2018-05-08T14:34:50.527Z,32.52
2018-05-08T14:37:20.289Z,32.33
2018-05-08T14:39:50.043Z,32.47
2018-05-08T14:42:19.854Z,32.50
2018-05-08T14:44:49.667Z,32.44
2018-05-08T14:47:19.479Z,32.37
2018-05-08T14:49:49.303Z,32.82
2018-05-08T14:52:19.212Z,32.87
2018-05-08T14:54:49.029Z,32.87
2018-05-08T14:57:18.923Z,32.36
2018-05-08T14:59:48.708Z,32.63
2018-05-08T15:02:18.422Z,32.95
2018-05-08T15:04:48.174Z,32.70
2018-05-08T15:07:18.094Z,32.87
2018-05-08T15:09:47.910Z,32.61
2018-05-08T15:12:17.820Z,31.91
2018-05-08T15:14:47.582Z,32.04
2018-05-08T15:17:17.443Z,32.36
2018-05-08T15:19:47.260Z,32.05
2018-05-08T15:22:17.073Z,32.19
2018-05-08T15:24:46.886Z,32.06
2018-05-08T15:27:16.825Z,32.29
2018-05-08T15:29:46.680Z,32.51
2018-05-08T15:32:16.347Z,32.28
2018-05-08T15:34:46.059Z,32.02
2018-05-08T15:37:15.781Z,31.87
2018-05-08T15:39:45.468Z,31.65
2018-05-08T15:42:15.176Z,30.88
2018-05-08T15:44:44.890Z,30.55
2018-05-08T15:47:14.767Z,29.77
2018-05-08T15:49:44.427Z,29.17
2018-05-08T15:52:14.223Z,28.86
2018-05-08T15:54:43.910Z,28.51
2018-05-08T15:57:13.594Z,28.28
2018-05-08T15:59:43.355Z,28.16
2018-05-08T16:02:13.151Z,27.75
2018-05-08T16:04:42.861Z,27.48
2018-05-08T16:07:12.545Z,27.02
2018-05-08T16:09:42.262Z,26.90
2018-05-08T16:12:12.026Z,26.80
2018-05-08T16:14:41.725Z,26.64
2018-05-08T16:17:11.477Z,26.25
2018-05-08T16:19:41.364Z,26.16
2018-05-08T16:22:10.933Z,25.98
2018-05-08T16:24:40.624Z,25.87
2018-05-08T16:27:10.325Z,25.81
2018-05-08T16:29:40.015Z,25.72
2018-05-08T16:32:09.782Z,25.65
2018-05-08T16:34:39.482Z,25.29
2018-05-08T16:37:09.179Z,25.32
2018-05-08T16:39:38.924Z,25.12
2018-05-08T16:42:08.610Z,25.12
2018-05-08T16:44:38.307Z,25.13
2018-05-08T16:47:08.030Z,25.09
2018-05-08T16:49:37.775Z,24.94
2018-05-08T16:52:07.474Z,24.84
2018-05-08T16:54:37.171Z,24.97
2018-05-08T16:57:06.862Z,24.96
2018-05-08T16:59:36.610Z,24.69
2018-05-08T17:02:06.317Z,24.13
2018-05-08T17:04:35.999Z,23.86
2018-05-08T17:07:05.776Z,23.85
2018-05-08T17:09:35.466Z,23.87
2018-05-08T17:12:05.169Z,23.95
2018-05-08T17:14:34.898Z,23.70
2018-05-08T17:17:04.596Z,23.72
2018-05-08T17:19:34.297Z,23.48
2018-05-08T17:22:04.095Z,23.53
2018-05-08T17:24:33.797Z,23.48
2018-05-08T17:27:03.529Z,23.36
2018-05-08T17:29:33.236Z,23.33
2018-05-08T17:32:02.962Z,23.25
2018-05-08T17:34:32.691Z,23.18
2018-05-08T17:37:02.377Z,23.13
2018-05-08T17:39:32.087Z,23.03
2018-05-08T17:42:01.835Z,22.73
2018-05-08T17:44:31.531Z,22.65
2018-05-08T17:47:01.252Z,22.55
2018-05-08T17:49:30.968Z,22.14
2018-05-08T17:52:00.720Z,21.84
2018-05-08T17:54:30.468Z,21.88
2018-05-08T17:57:00.192Z,21.96
2018-05-08T17:59:29.917Z,22.15
2018-05-08T18:01:59.674Z,22.37
2018-05-08T18:04:29.370Z,22.23
2018-05-08T18:06:59.090Z,22.33
2018-05-08T18:09:28.824Z,22.31
2018-05-08T18:11:58.533Z,22.00
2018-05-08T18:14:28.223Z,21.81
2018-05-08T18:16:57.938Z,21.84
2018-05-08T18:19:27.646Z,21.88
2018-05-08T18:21:57.372Z,21.92
2018-05-08T18:24:27.060Z,21.85
2018-05-08T18:26:56.745Z,21.73
2018-05-08T18:29:26.462Z,21.64
2018-05-08T18:31:56.149Z,21.63
2018-05-08T18:34:25.941Z,21.37
2018-05-08T18:36:55.665Z,21.17
2018-05-08T18:39:25.388Z,21.35
2018-05-08T18:41:55.083Z,20.91
2018-05-08T18:44:24.778Z,20.80
2018-05-08T18:46:54.471Z,20.43
2018-05-08T18:49:24.285Z,20.57
2018-05-08T18:51:53.980Z,20.63
2018-05-08T18:54:23.720Z,20.59
2018-05-08T18:56:53.410Z,20.65
2018-05-08T18:59:23.130Z,20.83
2018-05-08T19:01:52.950Z,20.90
2018-05-08T19:04:22.658Z,20.62
2018-05-08T19:06:52.385Z,20.45
2018-05-08T19:09:22.156Z,20.42
2018-05-08T19:11:51.869Z,20.48
2018-05-08T19:14:21.644Z,20.25
2018-05-08T19:16:51.352Z,20.26
2018-05-08T19:19:26.725Z,20.23
2018-05-08T19:21:56.421Z,20.29
2018-05-08T19:24:31.939Z,20.33
2018-05-08T19:27:01.636Z,20.49
2018-05-08T19:29:36.919Z,20.52
2018-05-08T19:32:06.665Z,20.34
2018-05-08T19:34:41.902Z,20.42
2018-05-08T19:37:17.165Z,20.38
2018-05-08T19:39:46.910Z,20.20
2018-05-08T19:42:16.631Z,20.06
2018-05-08T19:44:46.385Z,20.12
2018-05-08T19:47:16.109Z,20.00
2018-05-08T19:49:45.822Z,19.76
2018-05-08T19:52:15.557Z,19.59
2018-05-08T19:54:45.258Z,19.53
2018-05-08T19:57:15.059Z,19.58
2018-05-08T19:59:44.791Z,19.61
2018-05-08T20:02:14.505Z,19.53
2018-05-08T20:04:44.228Z,19.36
2018-05-08T20:07:13.911Z,19.36
2018-05-08T20:09:43.634Z,19.35
2018-05-08T20:12:13.341Z,19.25
2018-05-08T20:14:43.276Z,19.29
2018-05-08T20:17:13.039Z,19.30
2018-05-08T20:19:42.853Z,19.22
2018-05-08T20:22:12.544Z,19.13
2018-05-08T20:24:42.280Z,18.97
2018-05-08T20:27:12.000Z,18.78
2018-05-08T20:29:41.729Z,18.98
2018-05-08T20:32:11.471Z,18.91
2018-05-08T20:34:41.201Z,18.80
2018-05-08T20:37:10.982Z,18.75
2018-05-08T20:39:40.686Z,18.86
2018-05-08T20:42:10.377Z,18.95
2018-05-08T20:44:40.100Z,18.91
2018-05-08T20:47:09.810Z,18.81
2018-05-08T20:49:39.567Z,18.71
2018-05-08T20:52:09.282Z,18.41
2018-05-08T20:54:39.066Z,18.34
2018-05-08T20:57:08.816Z,18.55
2018-05-08T20:59:38.532Z,18.45
2018-05-08T21:02:08.232Z,18.26
2018-05-08T21:04:38.060Z,18.14
2018-05-08T21:07:07.753Z,18.10
2018-05-08T21:09:37.451Z,18.21
2018-05-08T21:12:07.184Z,18.24
2018-05-08T21:14:36.880Z,18.27
2018-05-08T21:17:06.600Z,18.21
2018-05-08T21:19:36.311Z,18.18
2018-05-08T21:22:06.016Z,18.20
2018-05-08T21:24:35.798Z,18.15
2018-05-08T21:27:05.533Z,17.93
2018-05-08T21:29:40.869Z,17.77
2018-05-08T21:32:10.577Z,17.63
2018-05-08T21:34:40.270Z,17.56
2018-05-08T21:37:10.001Z,17.56
2018-05-08T21:39:39.785Z,17.70
2018-05-08T21:42:09.454Z,17.64
2018-05-08T21:44:39.181Z,17.57
2018-05-08T21:47:08.892Z,17.37
2018-05-08T21:49:38.641Z,17.27
2018-05-08T21:52:08.361Z,17.32
2018-05-08T21:54:38.111Z,17.28
2018-05-08T21:57:07.839Z,17.15
2018-05-08T21:59:37.517Z,16.72
2018-05-08T22:02:07.215Z,16.52
2018-05-08T22:04:36.961Z,16.29
2018-05-08T22:07:06.661Z,16.34
2018-05-08T22:09:36.460Z,15.96
2018-05-08T22:12:06.157Z,15.98
2018-05-08T22:14:35.866Z,16.41
2018-05-08T22:17:05.650Z,16.60
2018-05-08T22:19:35.376Z,16.75
2018-05-08T22:22:05.085Z,16.74
2018-05-08T22:24:34.800Z,16.44
2018-05-08T22:27:04.521Z,16.24
2018-05-08T22:29:34.238Z,16.52
2018-05-08T22:32:03.917Z,16.53
2018-05-08T22:34:33.696Z,16.68
2018-05-08T22:37:03.445Z,16.63
2018-05-08T22:39:33.143Z,16.53
2018-05-08T22:42:02.845Z,16.39
2018-05-08T22:44:32.567Z,16.48
2018-05-08T22:47:02.281Z,16.48
2018-05-08T22:49:31.992Z,16.52
2018-05-08T22:52:01.727Z,16.39
2018-05-08T22:54:32.282Z,16.17
2018-05-08T22:57:02.108Z,16.23
2018-05-08T22:59:31.893Z,16.07
2018-05-08T23:02:02.172Z,16.06
2018-05-08T23:04:32.283Z,16.20
2018-05-08T23:07:02.659Z,16.08
2018-05-08T23:09:32.866Z,16.09
2018-05-08T23:12:02.978Z,15.81
2018-05-08T23:14:33.180Z,15.71
2018-05-08T23:17:03.343Z,15.55
2018-05-08T23:19:33.792Z,15.33
2018-05-08T23:22:04.169Z,15.50
2018-05-08T23:24:34.748Z,15.45
2018-05-08T23:27:04.982Z,15.59
2018-05-08T23:29:34.942Z,15.56
2018-05-08T23:32:05.646Z,15.34
2018-05-08T23:34:36.002Z,15.16
2018-05-08T23:37:06.217Z,14.97
2018-05-08T23:39:36.915Z,15.03
2018-05-08T23:42:07.115Z,15.24
2018-05-08T23:44:37.582Z,15.46
2018-05-08T23:47:07.444Z,15.27
2018-05-08T23:49:37.815Z,15.00
2018-05-08T23:52:08.219Z,14.76
2018-05-08T23:54:38.363Z,14.82
2018-05-08T23:57:08.880Z,14.75
2018-05-08T23:59:39.505Z,14.77
